Time;durP1;ratioP1;P1;durP2;ratioP2;P2;SDS_P1;SDS_P2;PMS_P1;PMS_P2;Temp;Humidity;BMP_temperature;BMP_pressure;BME280_temperature;BME280_humidity;BME280_pressure;Samples;Min_cycle;Max_cycle;Signal;HPM_P1;HPM_P2
2022/03/01 00:01:55;;;;;;;;;;;;;;;;;;6212589;23;20238;-87
2022/03/01 00:04:21;;;;;;;;;;;;;;;;;;6189312;23;19927;-87
2022/03/01 00:06:48;;;;;;;;;;;;;;;;;;6189311;23;20363;-87
2022/03/01 00:09:15;;;;;;;;;;;;;;;;;;6188427;23;19951;-87
2022/03/01 00:11:42;;;;;;;;;;;;;;;;;;6186938;23;20354;-87
2022/03/01 00:14:09;;;;;;;;;;;;;;;;;;6188472;23;19990;-88
2022/03/01 00:16:37;;;;;;;;;;;;;;;;;;6188720;23;19951;-87
2022/03/01 00:19:04;;;;;;;;;;;;;;;;;;6189309;23;19926;-87
2022/03/01 00:21:32;;;;;;;;;;;;;;;;;;6188798;23;19919;-87
2022/03/01 00:23:59;;;;;;;;;;;;;;;;;;6214481;23;19947;-88
2022/03/01 00:26:26;;;;;;;;;;;;;;;;;;6213678;23;20386;-88
2022/03/01 00:28:54;;;;;;;;;;;;;;;;;;6189255;23;19986;-88
2022/03/01 00:31:21;;;;;;;;;;;;;;;;;;6188842;23;19919;-88
2022/03/01 00:33:47;;;;;;;;;;;;;;;;;;6188973;23;19927;-87
2022/03/01 00:36:14;;;;;;;;;;;;;;;;;;6214178;23;20418;-88
2022/03/01 00:38:41;;;;;;;;;;;;;;;;;;6214144;23;19915;-87
2022/03/01 00:41:07;;;;;;;;;;;;;;;;;;6189311;23;19991;-88
2022/03/01 00:43:37;;;;;;;;;;;;;;;;;;6242191;23;19966;-88
2022/03/01 00:46:04;;;;;;;;;;;;;;;;;;6214622;23;19927;-87
2022/03/01 00:48:32;;;;;;;;;;;;;;;;;;6188737;23;20054;-88
2022/03/01 00:50:59;;;;;;;;;;;;;;;;;;6188741;23;19920;-88
2022/03/01 00:53:26;;;;;;;;;;;;;;;;;;6213934;23;19916;-88
2022/03/01 00:55:54;;;;;;;;;;;;;;;;;;6212187;23;19970;-88
2022/03/01 00:58:21;;;;;;;;;;;;;;;;;;6212745;23;19951;-88
2022/03/01 01:00:47;;;;;;;;;;;;;;;;;;6189481;23;19920;-87
2022/03/01 01:03:14;;;;;;;;;;;;;;;;;;6188525;23;19978;-88
2022/03/01 01:05:41;;;;;;;;;;;;;;;;;;6188081;23;19927;-87
2022/03/01 01:08:08;;;;;;;;;;;;;;;;;;6187905;23;20352;-88
2022/03/01 01:10:35;;;;;;;;;;;;;;;;;;6241248;23;19920;-88
2022/03/01 01:13:03;;;;;;;;;;;;;;;;;;6214064;23;19919;-88
2022/03/01 01:15:30;;;;;;;;;;;;;;;;;;6189279;23;20241;-88
2022/03/01 01:17:57;;;;;;;;;;;;;;;;;;6187415;23;20028;-88
2022/03/01 01:20:24;;;;;;;;;;;;;;;;;;6187126;23;20323;-88
2022/03/01 01:22:52;;;;;;;;;;;;;;;;;;6188480;23;19915;-87
2022/03/01 01:25:20;;;;;;;;;;;;;;;;;;6187179;23;20245;-87
2022/03/01 01:27:47;;;;;;;;;;;;;;;;;;6188286;23;19919;-87
2022/03/01 01:30:14;;;;;;;;;;;;;;;;;;6212980;23;19989;-87
2022/03/01 01:32:40;;;;;;;;;;;;;;;;;;6213285;23;19958;-87
2022/03/01 01:35:08;;;;;;;;;;;;;;;;;;6188434;23;19923;-87
2022/03/01 01:37:35;;;;;;;;;;;;;;;;;;6188393;23;19920;-87
2022/03/01 01:40:02;;;;;;;;;;;;;;;;;;6212793;23;19968;-87
2022/03/01 01:42:29;;;;;;;;;;;;;;;;;;6189340;23;19927;-88
2022/03/01 01:44:56;;;;;;;;;;;;;;;;;;6213777;23;20287;-88
2022/03/01 01:47:24;;;;;;;;;;;;;;;;;;6189050;23;19998;-88
2022/03/01 01:49:51;;;;;;;;;;;;;;;;;;6214068;23;20279;-88
2022/03/01 01:52:18;;;;;;;;;;;;;;;;;;6187519;23;19926;-87
2022/03/01 01:54:46;;;;;;;;;;;;;;;;;;6188054;23;20344;-87
2022/03/01 01:57:13;;;;;;;;;;;;;;;;;;6188289;23;20308;-87
2022/03/01 01:59:41;;;;;;;;;;;;;;;;;;6208958;23;20887;-87
2022/03/01 02:02:09;;;;;;;;;;;;;;;;;;6210451;23;19916;-87
2022/03/01 02:04:34;;;;;;;;;;;;;;;;;;6187432;23;19927;-87
2022/03/01 02:07:02;;;;;;;;;;;;;;;;;;6188173;23;19920;-87
2022/03/01 02:09:28;;;;;;;;;;;;;;;;;;6188284;23;19920;-87
2022/03/01 02:11:55;;;;;;;;;;;;;;;;;;6186847;23;19931;-88
2022/03/01 02:14:21;;;;;;;;;;;;;;;;;;6188510;23;19919;-87
2022/03/01 02:16:47;;;;;;;;;;;;;;;;;;6240319;23;19920;-88
2022/03/01 02:19:14;;;;;;;;;;;;;;;;;;6189142;23;19922;-89
2022/03/01 02:21:41;;;;;;;;;;;;;;;;;;6188530;23;19916;-88
2022/03/01 02:24:07;;;;;;;;;;;;;;;;;;6188890;23;20002;-88
2022/03/01 02:26:34;;;;;;;;;;;;;;;;;;6186313;23;20705;-88
2022/03/01 02:29:01;;;;;;;;;;;;;;;;;;6187441;23;19958;-89
2022/03/01 02:31:28;;;;;;;;;;;;;;;;;;6213279;23;19916;-88
2022/03/01 02:33:57;;;;;;;;;;;;;;;;;;6188370;23;19915;-88
2022/03/01 02:36:24;;;;;;;;;;;;;;;;;;6188165;23;19972;-88
2022/03/01 02:38:51;;;;;;;;;;;;;;;;;;6191082;23;20283;-88
2022/03/01 02:41:18;;;;;;;;;;;;;;;;;;6190712;23;19915;-89
2022/03/01 02:44:02;;;;;;;;;;;;;;;;;;6242770;23;19920;-89
2022/03/01 02:46:28;;;;;;;;;;;;;;;;;;6189948;23;19977;-89
2022/03/01 02:48:54;;;;;;;;;;;;;;;;;;6189499;23;19920;-88
2022/03/01 02:51:21;;;;;;;;;;;;;;;;;;6215022;23;19919;-88
2022/03/01 02:53:49;;;;;;;;;;;;;;;;;;6190754;23;19950;-88
2022/03/01 02:56:16;;;;;;;;;;;;;;;;;;6189800;23;20613;-89
2022/03/01 02:58:43;;;;;;;;;;;;;;;;;;6190349;23;20026;-89
2022/03/01 03:01:10;;;;;;;;;;;;;;;;;;6214834;23;19919;-88
2022/03/01 03:03:37;;;;;;;;;;;;;;;;;;6214526;23;19916;-89
2022/03/01 03:06:05;;;;;;;;;;;;;;;;;;6187734;23;19923;-89
2022/03/01 03:08:32;;;;;;;;;;;;;;;;;;6187839;23;20262;-89
2022/03/01 03:10:59;;;;;;;;;;;;;;;;;;6188753;23;19927;-89
2022/03/01 03:13:25;;;;;;;;;;;;;;;;;;6188830;23;19919;-88
2022/03/01 03:15:53;;;;;;;;;;;;;;;;;;6212774;23;19927;-88
2022/03/01 03:18:20;;;;;;;;;;;;;;;;;;6214528;23;19962;-89
2022/03/01 03:20:47;;;;;;;;;;;;;;;;;;6191613;23;19947;-89
2022/03/01 03:23:15;;;;;;;;;;;;;;;;;;6189628;23;19981;-89
2022/03/01 03:25:47;;;;;;;;;;;;;;;;;;6189926;23;20333;-89
2022/03/01 03:28:13;;;;;;;;;;;;;;;;;;6214067;23;19928;-89
2022/03/01 03:30:40;;;;;;;;;;;;;;;;;;6211702;23;20010;-89
2022/03/01 03:33:06;;;;;;;;;;;;;;;;;;6188197;23;20282;-88
2022/03/01 03:35:33;;;;;;;;;;;;;;;;;;6214727;23;20004;-89
2022/03/01 03:37:59;;;;;;;;;;;;;;;;;;6189680;23;19981;-88
2022/03/01 03:40:32;;;;;;;;;;;;;;;;;;6216467;23;19926;-88
2022/03/01 03:43:00;;;;;;;;;;;;;;;;;;6188720;23;19919;-89
2022/03/01 03:45:27;;;;;;;;;;;;;;;;;;6214098;23;20330;-88
2022/03/01 03:47:55;;;;;;;;;;;;;;;;;;6188308;23;19931;-89
2022/03/01 03:50:23;;;;;;;;;;;;;;;;;;6214383;23;19920;-89
2022/03/01 03:52:49;;;;;;;;;;;;;;;;;;6188582;23;20335;-89
2022/03/01 03:55:16;;;;;;;;;;;;;;;;;;6189579;23;19919;-89
2022/03/01 03:57:43;;;;;;;;;;;;;;;;;;6214937;23;19920;-89
2022/03/01 04:00:15;;;;;;;;;;;;;;;;;;6214300;23;19965;-89
2022/03/01 04:02:42;;;;;;;;;;;;;;;;;;6184188;23;19920;-89
2022/03/01 04:05:10;;;;;;;;;;;;;;;;;;6189067;23;19927;-88
2022/03/01 04:07:37;;;;;;;;;;;;;;;;;;6190021;23;20248;-88
2022/03/01 04:10:04;;;;;;;;;;;;;;;;;;6215451;23;20342;-88
2022/03/01 04:12:31;;;;;;;;;;;;;;;;;;6214576;23;20233;-88
2022/03/01 04:14:58;;;;;;;;;;;;;;;;;;6215307;23;19959;-87
2022/03/01 04:17:25;;;;;;;;;;;;;;;;;;6188533;23;20247;-88
2022/03/01 04:19:51;;;;;;;;;;;;;;;;;;6188249;23;19919;-88
2022/03/01 04:22:18;;;;;;;;;;;;;;;;;;6214311;23;19965;-88
2022/03/01 04:24:46;;;;;;;;;;;;;;;;;;6190883;23;19934;-88
2022/03/01 04:27:14;;;;;;;;;;;;;;;;;;6187792;23;19923;-88
2022/03/01 04:29:41;;;;;;;;;;;;;;;;;;6214480;23;19915;-88
2022/03/01 04:32:08;;;;;;;;;;;;;;;;;;6212961;23;20283;-88
2022/03/01 04:34:35;;;;;;;;;;;;;;;;;;6189428;23;19941;-88
2022/03/01 04:37:02;;;;;;;;;;;;;;;;;;6188935;23;20248;-87
2022/03/01 04:39:30;;;;;;;;;;;;;;;;;;6189286;23;19919;-88
2022/03/01 04:41:57;;;;;;;;;;;;;;;;;;6211691;23;19916;-88
2022/03/01 04:44:45;;;;;;;;;;;;;;;;;;6152915;23;19928;-88
2022/03/01 04:47:11;;;;;;;;;;;;;;;;;;6152272;23;19943;-88
2022/03/01 04:49:38;;;;;;;;;;;;;;;;;;6152010;23;20282;-88
2022/03/01 04:52:05;;;;;;;;;;;;;;;;;;6152386;23;19927;-88
2022/03/01 04:54:32;;;;;;;;;;;;;;;;;;6152484;23;19931;-88
2022/03/01 04:56:59;;;;;;;;;;;;;;;;;;6122371;23;19920;-88
2022/03/01 04:59:26;;;;;;;;;;;;;;;;;;6128063;23;19927;-88
2022/03/01 05:01:54;;;;;;;;;;;;;;;;;;6151152;23;19924;-88
2022/03/01 05:04:22;;;;;;;;;;;;;;;;;;6151814;23;20309;-88
2022/03/01 05:06:49;;;;;;;;;;;;;;;;;;6126877;23;20342;-88
2022/03/01 05:09:16;;;;;;;;;;;;;;;;;;6152931;23;20336;-87
2022/03/01 05:11:43;;;;;;;;;;;;;;;;;;6151802;23;19928;-88
2022/03/01 05:14:11;;;;;;;;;;;;;;;;;;6152006;23;19975;-88
2022/03/01 05:16:38;;;;;;;;;;;;;;;;;;6152074;23;19923;-87
2022/03/01 05:19:06;;;;;;;;;;;;;;;;;;6127247;23;19927;-87
2022/03/01 05:21:34;;;;;;;;;;;;;;;;;;6151965;23;19921;-87
2022/03/01 05:24:02;;;;;;;;;;;;;;;;;;6149918;23;19987;-87
2022/03/01 05:26:29;;;;;;;;;;;;;;;;;;6126949;23;19966;-88
2022/03/01 05:28:57;;;;;;;;;;;;;;;;;;6165451;23;19916;-88
2022/03/01 05:31:24;;;;;;;;;;;;;;;;;;6189380;23;19923;-88
2022/03/01 05:33:52;;;;;;;;;;;;;;;;;;6189429;23;19926;-87
2022/03/01 05:36:20;;;;;;;;;;;;;;;;;;6186056;23;19986;-87
2022/03/01 05:38:47;;;;;;;;;;;;;;;;;;6189495;23;19935;-88
2022/03/01 05:41:15;;;;;;;;;;;;;;;;;;6215440;23;19990;-88
2022/03/01 05:43:42;;;;;;;;;;;;;;;;;;6215893;23;19946;-88
2022/03/01 05:46:10;;;;;;;;;;;;;;;;;;6190270;23;20317;-88
2022/03/01 05:48:37;;;;;;;;;;;;;;;;;;6191363;23;19946;-87
2022/03/01 05:51:06;;;;;;;;;;;;;;;;;;6214395;23;20340;-88
2022/03/01 05:53:33;;;;;;;;;;;;;;;;;;6190091;23;20428;-88
2022/03/01 05:56:00;;;;;;;;;;;;;;;;;;6189479;23;19916;-88
2022/03/01 05:58:27;;;;;;;;;;;;;;;;;;6190411;23;19916;-88
2022/03/01 06:00:55;;;;;;;;;;;;;;;;;;6189045;23;19920;-88
2022/03/01 06:03:22;;;;;;;;;;;;;;;;;;6189135;23;19927;-88
2022/03/01 06:05:49;;;;;;;;;;;;;;;;;;6214980;23;19963;-88
2022/03/01 06:08:16;;;;;;;;;;;;;;;;;;6215529;23;19947;-89
2022/03/01 06:10:43;;;;;;;;;;;;;;;;;;6190275;23;19921;-87
2022/03/01 06:13:11;;;;;;;;;;;;;;;;;;6189463;23;20248;-88
2022/03/01 06:15:38;;;;;;;;;;;;;;;;;;6214941;23;19922;-88
2022/03/01 06:18:05;;;;;;;;;;;;;;;;;;6188403;23;20248;-88
2022/03/01 06:20:32;;;;;;;;;;;;;;;;;;6189498;23;20332;-88
2022/03/01 06:22:59;;;;;;;;;;;;;;;;;;6242232;23;19920;-88
2022/03/01 06:25:26;;;;;;;;;;;;;;;;;;6212673;23;20658;-88
2022/03/01 06:27:54;;;;;;;;;;;;;;;;;;6187962;23;20283;-89
2022/03/01 06:30:21;;;;;;;;;;;;;;;;;;6214250;23;19969;-89
2022/03/01 06:32:48;;;;;;;;;;;;;;;;;;6191079;23;19916;-90
2022/03/01 06:35:15;;;;;;;;;;;;;;;;;;6212679;23;19986;-89
2022/03/01 06:37:42;;;;;;;;;;;;;;;;;;6186601;23;19919;-89
2022/03/01 06:40:12;;;;;;;;;;;;;;;;;;6186903;23;20679;-89
2022/03/01 06:42:40;;;;;;;;;;;;;;;;;;6208533;23;19986;-88
2022/03/01 06:45:07;;;;;;;;;;;;;;;;;;6211242;23;19923;-88
2022/03/01 06:47:34;;;;;;;;;;;;;;;;;;6187566;23;19923;-91
2022/03/01 06:50:02;;;;;;;;;;;;;;;;;;6216625;23;19916;-92
2022/03/01 06:52:31;;;;;;;;;;;;;;;;;;6214802;23;19915;-91
2022/03/01 06:54:58;;;;;;;;;;;;;;;;;;6190907;23;19969;-88
2022/03/01 06:57:25;;;;;;;;;;;;;;;;;;6214861;23;19926;-89
2022/03/01 06:59:53;;;;;;;;;;;;;;;;;;6189992;23;19947;-89
2022/03/01 07:02:20;;;;;;;;;;;;;;;;;;6189051;22;19916;-89
2022/03/01 07:04:48;;;;;;;;;;;;;;;;;;6213920;23;19919;-89
2022/03/01 07:07:15;;;;;;;;;;;;;;;;;;6213642;23;20003;-89
2022/03/01 07:09:42;;;;;;;;;;;;;;;;;;6214370;23;19916;-90
2022/03/01 07:12:09;;;;;;;;;;;;;;;;;;6215502;23;19966;-89
2022/03/01 07:14:37;;;;;;;;;;;;;;;;;;6216232;23;19920;-89
2022/03/01 07:17:04;;;;;;;;;;;;;;;;;;6190047;23;20321;-88
2022/03/01 07:19:31;;;;;;;;;;;;;;;;;;6190955;23;19924;-89
2022/03/01 07:21:58;;;;;;;;;;;;;;;;;;6190264;23;19951;-89
2022/03/01 07:24:25;;;;;;;;;;;;;;;;;;6244307;23;19924;-89
2022/03/01 07:26:53;;;;;;;;;;;;;;;;;;6216879;23;19990;-89
2022/03/01 07:29:20;;;;;;;;;;;;;;;;;;6218482;23;20390;-89
2022/03/01 07:31:47;;;;;;;;;;;;;;;;;;6192784;23;19998;-89
2022/03/01 07:34:14;;;;;;;;;;;;;;;;;;6191980;23;20008;-89
2022/03/01 07:36:41;;;;;;;;;;;;;;;;;;6192359;23;20404;-89
2022/03/01 07:39:08;;;;;;;;;;;;;;;;;;6192207;23;19915;-89
2022/03/01 07:41:34;;;;;;;;;;;;;;;;;;6192643;23;20253;-89
2022/03/01 07:44:02;;;;;;;;;;;;;;;;;;6217184;23;20329;-89
2022/03/01 07:46:29;;;;;;;;;;;;;;;;;;6217247;23;20555;-89
2022/03/01 07:48:56;;;;;;;;;;;;;;;;;;6192061;23;19916;-89
2022/03/01 07:51:23;;;;;;;;;;;;;;;;;;6192022;23;19994;-88
2022/03/01 07:53:51;;;;;;;;;;;;;;;;;;6192140;23;19915;-88
2022/03/01 07:56:21;;;;;;;;;;;;;;;;;;6216924;23;19922;-88
2022/03/01 07:58:49;;;;;;;;;;;;;;;;;;6192889;23;19938;-89
2022/03/01 08:01:16;;;;;;;;;;;;;;;;;;6192772;23;20256;-88
2022/03/01 08:03:43;;;;;;;;;;;;;;;;;;6191678;23;20244;-90
2022/03/01 08:06:10;;;;;;;;;;;;;;;;;;6214903;23;19977;-89
2022/03/01 08:08:37;;;;;;;;;;;;;;;;;;6191798;23;19926;-88
2022/03/01 08:11:07;;;;;;;;;;;;;;;;;;6191019;23;19998;-88
2022/03/01 08:13:34;;;;;;;;;;;;;;;;;;6214363;23;19920;-88
2022/03/01 08:16:01;;;;;;;;;;;;;;;;;;6214788;23;19946;-88
2022/03/01 08:18:29;;;;;;;;;;;;;;;;;;6215635;23;19920;-88
2022/03/01 08:20:57;;;;;;;;;;;;;;;;;;6189165;23;20299;-89
2022/03/01 08:23:24;;;;;;;;;;;;;;;;;;6212153;23;19926;-88
2022/03/01 08:25:50;;;;;;;;;;;;;;;;;;6190599;23;19924;-88
2022/03/01 08:28:18;;;;;;;;;;;;;;;;;;6213647;23;19998;-88
2022/03/01 08:30:46;;;;;;;;;;;;;;;;;;6189884;23;19987;-88
2022/03/01 08:33:16;;;;;;;;;;;;;;;;;;6189182;23;19935;-88
2022/03/01 08:35:43;;;;;;;;;;;;;;;;;;6189528;23;19958;-88
2022/03/01 08:38:10;;;;;;;;;;;;;;;;;;6188697;23;19946;-88
2022/03/01 08:40:40;;;;;;;;;;;;;;;;;;6214913;23;20256;-87
2022/03/01 08:43:06;;;;;;;;;;;;;;;;;;6211554;23;19922;-89
2022/03/01 08:45:34;;;;;;;;;;;;;;;;;;6214128;23;19923;-88
2022/03/01 08:48:01;;;;;;;;;;;;;;;;;;6189069;23;19923;-88
2022/03/01 08:50:29;;;;;;;;;;;;;;;;;;6185063;23;19985;-88
2022/03/01 08:52:56;;;;;;;;;;;;;;;;;;6185802;23;19915;-89
2022/03/01 08:55:23;;;;;;;;;;;;;;;;;;6214223;23;19927;-89
2022/03/01 08:57:50;;;;;;;;;;;;;;;;;;6188705;23;19920;-89
2022/03/01 09:00:17;;;;;;;;;;;;;;;;;;6189887;23;19928;-89
2022/03/01 09:02:45;;;;;;;;;;;;;;;;;;6187736;23;19916;-88
2022/03/01 09:05:11;;;;;;;;;;;;;;;;;;6188296;23;19926;-88
2022/03/01 09:07:38;;;;;;;;;;;;;;;;;;6188012;23;19931;-88
2022/03/01 09:10:05;;;;;;;;;;;;;;;;;;6213613;23;19920;-89
2022/03/01 09:12:32;;;;;;;;;;;;;;;;;;6213888;23;19920;-89
2022/03/01 09:14:59;;;;;;;;;;;;;;;;;;6186736;23;19974;-89
2022/03/01 09:17:31;;;;;;;;;;;;;;;;;;6188775;23;19915;-89
2022/03/01 09:19:58;;;;;;;;;;;;;;;;;;6188851;23;20332;-89
2022/03/01 09:22:28;;;;;;;;;;;;;;;;;;6215044;23;20441;-89
2022/03/01 09:24:58;;;;;;;;;;;;;;;;;;6190101;23;20386;-89
2022/03/01 09:34:05;;;;;;;;;;;;;;;;;;;;;
2022/03/01 10:26:14;;;;;;;;;;;;;;;;;;6351080;22;19924;-90
2022/03/01 10:44:23;;;;;;;;;;;;;;;;;;6034166;23;20368;-89
2022/03/01 10:50:32;;;;;;;;;;;;;;;;;;;;;
2022/03/01 10:53:15;;;;;;;;;;;;;;;;;;6020195;23;19926;-89
2022/03/01 11:11:17;;;;;;;;;;;;;;;;;;6097064;23;19919;-89
2022/03/01 11:41:48;;;;;;;;;;;;;;;;;;6083401;22;19921;-87
2022/03/01 11:44:14;;;;;;;;;;;;;;;;;;6281395;22;19922;-87
2022/03/01 11:46:40;;;;;;;;;;;;;;;;;;6306694;22;20289;-86
2022/03/01 11:49:06;;;;;;;;;;;;;;;;;;6305352;22;19926;-88
2022/03/01 11:51:35;;;;;;;;;;;;;;;;;;6305514;22;19923;-87
2022/03/01 11:54:01;;;;;;;;;;;;;;;;;;6305037;22;19976;-86
2022/03/01 11:56:27;;;;;;;;;;;;;;;;;;6304835;22;19919;-87
2022/03/01 11:58:53;;;;;;;;;;;;;;;;;;6304888;22;20338;-87
2022/03/01 12:01:24;;;;;;;;;;;;;;;;;;6305313;22;19918;-86
2022/03/01 12:03:53;;;;;;;;;;;;;;;;;;6303786;22;19997;-88
2022/03/01 12:06:19;;;;;;;;;;;;;;;;;;6278253;22;19922;-87
2022/03/01 12:08:45;;;;;;;;;;;;;;;;;;6278144;22;19919;-87
2022/03/01 12:11:11;;;;;;;;;;;;;;;;;;6276305;22;19923;-87
2022/03/01 12:13:37;;;;;;;;;;;;;;;;;;6274682;22;20438;-87
2022/03/01 12:16:03;;;;;;;;;;;;;;;;;;6275179;22;19923;-88
2022/03/01 12:18:29;;;;;;;;;;;;;;;;;;6276020;22;20032;-87
2022/03/01 12:20:55;;;;;;;;;;;;;;;;;;6274525;22;19921;-87
2022/03/01 12:23:21;;;;;;;;;;;;;;;;;;6275488;22;19918;-87
2022/03/01 12:25:47;;;;;;;;;;;;;;;;;;6277574;22;19964;-87
2022/03/01 12:28:15;;;;;;;;;;;;;;;;;;6274354;22;19972;-87
2022/03/01 12:30:42;;;;;;;;;;;;;;;;;;6275350;22;19925;-87
2022/03/01 12:33:08;;;;;;;;;;;;;;;;;;6274505;22;19988;-87
2022/03/01 12:35:35;;;;;;;;;;;;;;;;;;6274998;22;19919;-87
2022/03/01 12:38:01;;;;;;;;;;;;;;;;;;6275553;22;19926;-87
2022/03/01 12:40:27;;;;;;;;;;;;;;;;;;6274813;22;19918;-87
2022/03/01 12:42:53;;;;;;;;;;;;;;;;;;6275287;22;20472;-86
2022/03/01 12:45:19;;;;;;;;;;;;;;;;;;6275483;22;19923;-87
2022/03/01 12:47:45;;;;;;;;;;;;;;;;;;6275760;22;19915;-87
2022/03/01 12:50:14;;;;;;;;;;;;;;;;;;6274330;22;19930;-87
2022/03/01 12:52:40;;;;;;;;;;;;;;;;;;6275497;22;19925;-87
2022/03/01 12:55:06;;;;;;;;;;;;;;;;;;6275418;22;19969;-87
2022/03/01 12:57:34;;;;;;;;;;;;;;;;;;6274939;22;19919;-87
2022/03/01 13:00:00;;;;;;;;;;;;;;;;;;6274814;22;19914;-87
2022/03/01 13:02:26;;;;;;;;;;;;;;;;;;6273518;22;19980;-88
2022/03/01 13:04:52;;;;;;;;;;;;;;;;;;6275251;22;19950;-88
2022/03/01 13:07:20;;;;;;;;;;;;;;;;;;6275181;22;19995;-88
2022/03/01 13:09:48;;;;;;;;;;;;;;;;;;6275455;22;20307;-87
2022/03/01 13:12:14;;;;;;;;;;;;;;;;;;6274426;22;19919;-87
2022/03/01 13:14:40;;;;;;;;;;;;;;;;;;6274906;22;19922;-87
2022/03/01 13:17:06;;;;;;;;;;;;;;;;;;6274724;22;19997;-87
2022/03/01 13:19:32;;;;;;;;;;;;;;;;;;6274873;22;20285;-87
2022/03/01 13:21:58;;;;;;;;;;;;;;;;;;6272736;22;19957;-87
2022/03/01 13:24:24;;;;;;;;;;;;;;;;;;6275261;22;19982;-87
2022/03/01 13:26:50;;;;;;;;;;;;;;;;;;6274878;22;19950;-87
2022/03/01 13:29:16;;;;;;;;;;;;;;;;;;6274818;22;19914;-86
2022/03/01 13:31:42;;;;;;;;;;;;;;;;;;6275105;22;20624;-87
2022/03/01 13:34:11;;;;;;;;;;;;;;;;;;6275128;22;19938;-87
2022/03/01 13:36:38;;;;;;;;;;;;;;;;;;6276094;22;19918;-86
2022/03/01 13:39:06;;;;;;;;;;;;;;;;;;6274607;22;19918;-87
2022/03/01 13:41:40;;;;;;;;;;;;;;;;;;6274572;22;19943;-87
2022/03/01 13:44:06;;;;;;;;;;;;;;;;;;6273912;22;20441;-87
2022/03/01 13:46:32;;;;;;;;;;;;;;;;;;6275382;22;19923;-88
2022/03/01 13:48:58;;;;;;;;;;;;;;;;;;6274587;22;20520;-88
2022/03/01 13:51:23;;;;;;;;;;;;;;;;;;6274574;22;19926;-87
2022/03/01 13:53:49;;;;;;;;;;;;;;;;;;6274707;22;19915;-87
2022/03/01 13:56:15;;;;;;;;;;;;;;;;;;6274479;22;19919;-87
2022/03/01 13:58:41;;;;;;;;;;;;;;;;;;6274294;22;20336;-87
2022/03/01 14:01:08;;;;;;;;;;;;;;;;;;6275741;22;19919;-87
2022/03/01 14:03:35;;;;;;;;;;;;;;;;;;6274604;22;19966;-87
2022/03/01 14:06:01;;;;;;;;;;;;;;;;;;6274891;22;19919;-88
2022/03/01 14:08:27;;;;;;;;;;;;;;;;;;6274967;22;19919;-87
2022/03/01 14:10:53;;;;;;;;;;;;;;;;;;6275004;22;19985;-87
2022/03/01 14:13:19;;;;;;;;;;;;;;;;;;6274931;22;19925;-87
2022/03/01 14:15:45;;;;;;;;;;;;;;;;;;6274926;22;19919;-88
2022/03/01 14:18:12;;;;;;;;;;;;;;;;;;6272767;22;20598;-88
2022/03/01 14:20:37;;;;;;;;;;;;;;;;;;6274215;22;19955;-87
2022/03/01 14:23:03;;;;;;;;;;;;;;;;;;6274051;22;19954;-87
2022/03/01 14:25:29;;;;;;;;;;;;;;;;;;6275525;22;19919;-87
2022/03/01 14:27:56;;;;;;;;;;;;;;;;;;6274760;22;20247;-87
2022/03/01 14:30:22;;;;;;;;;;;;;;;;;;6275257;22;19923;-88
2022/03/01 14:32:48;;;;;;;;;;;;;;;;;;6275315;22;20069;-87
2022/03/01 14:35:13;;;;;;;;;;;;;;;;;;6275871;22;20019;-88
2022/03/01 14:37:40;;;;;;;;;;;;;;;;;;6274950;22;19954;-87
2022/03/01 14:40:05;;;;;;;;;;;;;;;;;;6274839;22;20297;-87
2022/03/01 14:42:32;;;;;;;;;;;;;;;;;;6275013;22;19923;-87
2022/03/01 14:44:57;;;;;;;;;;;;;;;;;;6274716;22;19998;-87
2022/03/01 14:47:23;;;;;;;;;;;;;;;;;;6274118;22;20346;-87
2022/03/01 14:49:49;;;;;;;;;;;;;;;;;;6274769;22;19922;-90
2022/03/01 14:52:15;;;;;;;;;;;;;;;;;;6274636;22;19930;-90
2022/03/01 14:54:41;;;;;;;;;;;;;;;;;;6274814;22;19922;-90
2022/03/01 14:57:07;;;;;;;;;;;;;;;;;;6276537;22;19950;-90
2022/03/01 14:59:33;;;;;;;;;;;;;;;;;;6276623;22;19923;-90
2022/03/01 15:01:59;;;;;;;;;;;;;;;;;;6274362;22;19991;-89
2022/03/01 15:04:25;;;;;;;;;;;;;;;;;;6275624;22;19946;-90
2022/03/01 15:06:51;;;;;;;;;;;;;;;;;;6275427;22;20387;-90
2022/03/01 15:09:17;;;;;;;;;;;;;;;;;;6276777;22;19923;-90
2022/03/01 15:11:43;;;;;;;;;;;;;;;;;;6276566;22;20347;-91
2022/03/01 15:14:09;;;;;;;;;;;;;;;;;;6276025;22;19919;-90
2022/03/01 15:16:35;;;;;;;;;;;;;;;;;;6276351;22;19941;-90
2022/03/01 15:19:01;;;;;;;;;;;;;;;;;;6275301;22;19996;-90
2022/03/01 15:21:27;;;;;;;;;;;;;;;;;;6277976;22;19915;-90
2022/03/01 15:23:54;;;;;;;;;;;;;;;;;;6276873;22;19919;-90
2022/03/01 15:26:23;;;;;;;;;;;;;;;;;;6277263;22;19919;-90
2022/03/01 15:28:48;;;;;;;;;;;;;;;;;;6278171;22;19921;-90
2022/03/01 15:31:15;;;;;;;;;;;;;;;;;;6278048;22;19955;-90
2022/03/01 15:33:40;;;;;;;;;;;;;;;;;;6275239;22;20445;-89
2022/03/01 15:36:06;;;;;;;;;;;;;;;;;;6275283;22;19953;-90
2022/03/01 15:38:32;;;;;;;;;;;;;;;;;;6275976;22;20419;-90
2022/03/01 15:41:00;;;;;;;;;;;;;;;;;;6275289;22;20011;-89
2022/03/01 15:43:26;;;;;;;;;;;;;;;;;;6278563;22;20221;-90
2022/03/01 15:45:52;;;;;;;;;;;;;;;;;;6277812;22;20010;-90
2022/03/01 15:48:18;;;;;;;;;;;;;;;;;;6276955;22;19919;-90
2022/03/01 15:50:47;;;;;;;;;;;;;;;;;;6277251;22;19922;-89
2022/03/01 15:53:13;;;;;;;;;;;;;;;;;;6277889;22;20359;-90
2022/03/01 15:55:39;;;;;;;;;;;;;;;;;;6277729;22;20010;-89
2022/03/01 15:58:07;;;;;;;;;;;;;;;;;;6276982;22;19969;-89
2022/03/01 16:00:33;;;;;;;;;;;;;;;;;;6277798;22;19922;-90
2022/03/01 16:02:59;;;;;;;;;;;;;;;;;;6277977;22;19918;-89
2022/03/01 16:05:28;;;;;;;;;;;;;;;;;;6275123;22;20228;-90
2022/03/01 16:07:54;;;;;;;;;;;;;;;;;;6274612;22;19926;-89
2022/03/01 16:10:21;;;;;;;;;;;;;;;;;;6276186;22;20240;-90
2022/03/01 16:12:47;;;;;;;;;;;;;;;;;;6275003;22;20248;-90
2022/03/01 16:15:16;;;;;;;;;;;;;;;;;;6273072;22;19997;-90
2022/03/01 16:17:42;;;;;;;;;;;;;;;;;;6275033;22;19978;-90
2022/03/01 16:20:08;;;;;;;;;;;;;;;;;;6274360;22;19937;-90
2022/03/01 16:22:34;;;;;;;;;;;;;;;;;;6276313;22;19923;-90
2022/03/01 16:25:02;;;;;;;;;;;;;;;;;;6275285;22;19914;-91
2022/03/01 16:27:28;;;;;;;;;;;;;;;;;;6298846;22;19943;-91
2022/03/01 16:30:00;;;;;;;;;;;;;;;;;;6275764;22;19919;-90
2022/03/01 16:32:29;;;;;;;;;;;;;;;;;;6273944;22;19938;-90
2022/03/01 16:34:55;;;;;;;;;;;;;;;;;;6273129;22;19915;-91
2022/03/01 16:37:21;;;;;;;;;;;;;;;;;;6274240;22;19925;-91
2022/03/01 16:39:47;;;;;;;;;;;;;;;;;;6273766;22;20017;-92
2022/03/01 16:42:13;;;;;;;;;;;;;;;;;;6275629;22;19919;-90
2022/03/01 16:44:40;;;;;;;;;;;;;;;;;;6273738;22;20351;-91
2022/03/01 16:47:06;;;;;;;;;;;;;;;;;;6273841;22;19915;-91
2022/03/01 16:49:34;;;;;;;;;;;;;;;;;;6274246;22;19922;-91
2022/03/01 16:52:01;;;;;;;;;;;;;;;;;;6273616;22;19923;-91
2022/03/01 16:54:27;;;;;;;;;;;;;;;;;;6275571;22;20282;-90
2022/03/01 16:56:56;;;;;;;;;;;;;;;;;;6275072;22;20320;-91
2022/03/01 16:59:22;;;;;;;;;;;;;;;;;;6275648;22;19915;-92
2022/03/01 17:01:48;;;;;;;;;;;;;;;;;;6274294;22;19915;-91
2022/03/01 17:04:14;;;;;;;;;;;;;;;;;;6274343;22;19993;-91
2022/03/01 17:06:40;;;;;;;;;;;;;;;;;;6274439;22;19941;-90
2022/03/01 17:09:13;;;;;;;;;;;;;;;;;;6274037;22;20320;-91
2022/03/01 17:11:42;;;;;;;;;;;;;;;;;;6272638;22;20243;-93
2022/03/01 17:14:08;;;;;;;;;;;;;;;;;;6270192;22;20741;-90
2022/03/01 17:16:34;;;;;;;;;;;;;;;;;;6272916;22;19919;-90
2022/03/01 17:19:02;;;;;;;;;;;;;;;;;;6274146;22;19922;-90
2022/03/01 17:21:29;;;;;;;;;;;;;;;;;;6273515;22;19937;-90
2022/03/01 17:23:55;;;;;;;;;;;;;;;;;;6274196;22;19969;-91
2022/03/01 17:26:21;;;;;;;;;;;;;;;;;;6274535;22;19919;-90
2022/03/01 17:28:52;;;;;;;;;;;;;;;;;;6275234;22;19919;-92
2022/03/01 17:31:18;;;;;;;;;;;;;;;;;;6274163;22;19962;-90
2022/03/01 17:33:47;;;;;;;;;;;;;;;;;;6273187;22;19919;-90
2022/03/01 17:36:13;;;;;;;;;;;;;;;;;;6272026;22;19954;-91
2022/03/01 17:38:39;;;;;;;;;;;;;;;;;;6273676;22;20350;-92
2022/03/01 17:41:05;;;;;;;;;;;;;;;;;;6273000;22;20336;-91
2022/03/01 17:43:32;;;;;;;;;;;;;;;;;;6273160;22;19919;-92
2022/03/01 17:46:00;;;;;;;;;;;;;;;;;;6271615;22;20221;-91
2022/03/01 17:48:31;;;;;;;;;;;;;;;;;;6271975;22;19915;-90
2022/03/01 17:50:59;;;;;;;;;;;;;;;;;;6272308;22;19972;-91
2022/03/01 17:53:36;;;;;;;;;;;;;;;;;;6300625;22;19918;-91
2022/03/01 17:56:03;;;;;;;;;;;;;;;;;;6271378;22;19918;-91
2022/03/01 17:58:29;;;;;;;;;;;;;;;;;;6270652;22;20331;-91
2022/03/01 18:00:55;;;;;;;;;;;;;;;;;;6272687;22;19918;-91
2022/03/01 18:03:21;;;;;;;;;;;;;;;;;;6272890;22;19918;-91
2022/03/01 18:05:47;;;;;;;;;;;;;;;;;;6273101;22;19918;-92
2022/03/01 18:08:18;;;;;;;;;;;;;;;;;;6272892;22;19973;-92
2022/03/01 18:10:46;;;;;;;;;;;;;;;;;;6273357;22;20381;-91
2022/03/01 18:13:12;;;;;;;;;;;;;;;;;;6273323;22;19946;-91
2022/03/01 18:15:39;;;;;;;;;;;;;;;;;;6273546;22;19926;-90
2022/03/01 18:18:05;;;;;;;;;;;;;;;;;;6272702;22;19915;-92
2022/03/01 18:20:32;;;;;;;;;;;;;;;;;;6272990;22;20244;-91
2022/03/01 18:22:59;;;;;;;;;;;;;;;;;;6274895;22;20351;-91
2022/03/01 18:25:25;;;;;;;;;;;;;;;;;;6272746;22;20044;-92
2022/03/01 18:27:54;;;;;;;;;;;;;;;;;;6271955;22;19923;-91
2022/03/01 18:30:25;;;;;;;;;;;;;;;;;;6273139;22;20336;-92
2022/03/01 18:33:07;;;;;;;;;;;;;;;;;;6275953;22;19915;-92
2022/03/01 18:35:37;;;;;;;;;;;;;;;;;;6276411;22;19926;-92
2022/03/01 18:38:03;;;;;;;;;;;;;;;;;;6276373;22;19976;-93
2022/03/01 18:40:29;;;;;;;;;;;;;;;;;;6276009;22;19958;-91
2022/03/01 18:42:58;;;;;;;;;;;;;;;;;;6274660;22;19914;-92
2022/03/01 18:45:24;;;;;;;;;;;;;;;;;;6275591;22;19930;-92